sensor_id;sensor_type;location;lat;lon;timestamp;P1;durP1;ratioP1;P2;durP2;ratioP2
21034;SDS011;10676;50.848;3.272;2023-02-15T00:01:30;236.27;;;93.80;;
21034;SDS011;10676;50.848;3.272;2023-02-15T00:03:56;242.97;;;93.70;;
21034;SDS011;10676;50.848;3.272;2023-02-15T00:06:22;209.27;;;87.53;;
21034;SDS011;10676;50.848;3.272;2023-02-15T00:08:48;222.83;;;91.40;;
21034;SDS011;10676;50.848;3.272;2023-02-15T00:11:15;215.00;;;91.47;;
21034;SDS011;10676;50.848;3.272;2023-02-15T00:13:42;213.53;;;89.90;;
21034;SDS011;10676;50.848;3.272;2023-02-15T00:16:09;219.03;;;89.70;;
21034;SDS011;10676;50.848;3.272;2023-02-15T00:18:36;250.97;;;91.60;;
21034;SDS011;10676;50.848;3.272;2023-02-15T00:21:06;244.97;;;89.57;;
21034;SDS011;10676;50.848;3.272;2023-02-15T00:23:33;219.63;;;89.27;;
21034;SDS011;10676;50.848;3.272;2023-02-15T00:26:03;225.50;;;91.60;;
21034;SDS011;10676;50.848;3.272;2023-02-15T00:28:36;216.90;;;84.83;;
21034;SDS011;10676;50.848;3.272;2023-02-15T00:31:11;209.40;;;88.63;;
21034;SDS011;10676;50.848;3.272;2023-02-15T00:33:38;231.53;;;87.53;;
21034;SDS011;10676;50.848;3.272;2023-02-15T00:36:05;241.00;;;90.73;;
21034;SDS011;10676;50.848;3.272;2023-02-15T00:38:32;243.67;;;89.37;;
21034;SDS011;10676;50.848;3.272;2023-02-15T00:41:00;240.53;;;88.70;;
21034;SDS011;10676;50.848;3.272;2023-02-15T00:43:27;239.43;;;90.37;;
21034;SDS011;10676;50.848;3.272;2023-02-15T00:45:53;241.40;;;89.03;;
21034;SDS011;10676;50.848;3.272;2023-02-15T00:48:19;209.00;;;83.57;;
21034;SDS011;10676;50.848;3.272;2023-02-15T00:50:49;199.80;;;87.93;;
21034;SDS011;10676;50.848;3.272;2023-02-15T00:53:17;229.27;;;84.30;;
21034;SDS011;10676;50.848;3.272;2023-02-15T00:55:43;236.87;;;82.87;;
21034;SDS011;10676;50.848;3.272;2023-02-15T00:58:09;221.27;;;86.07;;
21034;SDS011;10676;50.848;3.272;2023-02-15T01:00:35;222.77;;;86.23;;
21034;SDS011;10676;50.848;3.272;2023-02-15T01:03:02;233.50;;;87.33;;
21034;SDS011;10676;50.848;3.272;2023-02-15T01:05:28;216.80;;;84.23;;
21034;SDS011;10676;50.848;3.272;2023-02-15T01:07:54;239.40;;;87.07;;
21034;SDS011;10676;50.848;3.272;2023-02-15T01:10:21;241.43;;;91.50;;
21034;SDS011;10676;50.848;3.272;2023-02-15T01:12:47;268.43;;;90.33;;
21034;SDS011;10676;50.848;3.272;2023-02-15T01:15:13;246.37;;;90.60;;
21034;SDS011;10676;50.848;3.272;2023-02-15T01:17:38;223.13;;;84.87;;
21034;SDS011;10676;50.848;3.272;2023-02-15T01:20:05;206.43;;;80.17;;
21034;SDS011;10676;50.848;3.272;2023-02-15T01:22:31;218.70;;;83.60;;
21034;SDS011;10676;50.848;3.272;2023-02-15T01:24:56;214.90;;;82.77;;
21034;SDS011;10676;50.848;3.272;2023-02-15T01:27:22;204.10;;;81.53;;
21034;SDS011;10676;50.848;3.272;2023-02-15T01:29:48;209.70;;;80.97;;
21034;SDS011;10676;50.848;3.272;2023-02-15T01:32:13;194.87;;;80.33;;
21034;SDS011;10676;50.848;3.272;2023-02-15T01:34:39;191.10;;;76.83;;
21034;SDS011;10676;50.848;3.272;2023-02-15T01:37:05;192.37;;;81.07;;
21034;SDS011;10676;50.848;3.272;2023-02-15T01:39:30;192.20;;;77.00;;
21034;SDS011;10676;50.848;3.272;2023-02-15T01:41:56;187.40;;;78.37;;
21034;SDS011;10676;50.848;3.272;2023-02-15T01:47:13;182.43;;;76.87;;
21034;SDS011;10676;50.848;3.272;2023-02-15T01:49:41;196.43;;;79.47;;
21034;SDS011;10676;50.848;3.272;2023-02-15T01:52:10;198.80;;;79.83;;
21034;SDS011;10676;50.848;3.272;2023-02-15T01:54:39;201.50;;;79.73;;
21034;SDS011;10676;50.848;3.272;2023-02-15T01:57:10;192.73;;;77.37;;
21034;SDS011;10676;50.848;3.272;2023-02-15T01:59:40;203.00;;;79.57;;
21034;SDS011;10676;50.848;3.272;2023-02-15T02:02:10;192.07;;;76.07;;
21034;SDS011;10676;50.848;3.272;2023-02-15T02:04:43;197.27;;;78.93;;
21034;SDS011;10676;50.848;3.272;2023-02-15T02:07:13;183.97;;;78.50;;
21034;SDS011;10676;50.848;3.272;2023-02-15T02:09:41;182.87;;;75.33;;
21034;SDS011;10676;50.848;3.272;2023-02-15T02:12:06;194.13;;;76.77;;
21034;SDS011;10676;50.848;3.272;2023-02-15T02:14:33;188.90;;;77.17;;
21034;SDS011;10676;50.848;3.272;2023-02-15T02:17:11;205.23;;;78.90;;
21034;SDS011;10676;50.848;3.272;2023-02-15T02:31:13;185.97;;;75.67;;
21034;SDS011;10676;50.848;3.272;2023-02-15T02:36:52;190.53;;;73.93;;
21034;SDS011;10676;50.848;3.272;2023-02-15T02:45:00;183.00;;;73.80;;
21034;SDS011;10676;50.848;3.272;2023-02-15T02:47:32;180.67;;;71.73;;
21034;SDS011;10676;50.848;3.272;2023-02-15T02:50:08;182.57;;;73.23;;
21034;SDS011;10676;50.848;3.272;2023-02-15T02:52:44;182.10;;;74.43;;
21034;SDS011;10676;50.848;3.272;2023-02-15T03:00:29;185.97;;;73.70;;
21034;SDS011;10676;50.848;3.272;2023-02-15T03:03:20;177.43;;;70.67;;
21034;SDS011;10676;50.848;3.272;2023-02-15T03:05:53;184.90;;;71.33;;
21034;SDS011;10676;50.848;3.272;2023-02-15T03:08:24;189.93;;;72.70;;
21034;SDS011;10676;50.848;3.272;2023-02-15T03:10:55;184.33;;;72.47;;
21034;SDS011;10676;50.848;3.272;2023-02-15T03:13:22;195.30;;;76.83;;
21034;SDS011;10676;50.848;3.272;2023-02-15T03:15:48;184.47;;;73.13;;
21034;SDS011;10676;50.848;3.272;2023-02-15T03:18:35;199.33;;;76.50;;
21034;SDS011;10676;50.848;3.272;2023-02-15T03:21:19;191.77;;;75.47;;
21034;SDS011;10676;50.848;3.272;2023-02-15T03:23:54;187.53;;;71.27;;
21034;SDS011;10676;50.848;3.272;2023-02-15T03:26:29;185.13;;;72.73;;
21034;SDS011;10676;50.848;3.272;2023-02-15T03:28:56;178.20;;;70.77;;
21034;SDS011;10676;50.848;3.272;2023-02-15T03:31:24;185.93;;;75.83;;
21034;SDS011;10676;50.848;3.272;2023-02-15T03:33:58;192.80;;;72.00;;
21034;SDS011;10676;50.848;3.272;2023-02-15T03:41:46;185.43;;;71.53;;
21034;SDS011;10676;50.848;3.272;2023-02-15T03:44:23;181.17;;;74.87;;
21034;SDS011;10676;50.848;3.272;2023-02-15T03:47:11;187.40;;;75.67;;
21034;SDS011;10676;50.848;3.272;2023-02-15T03:52:13;182.80;;;70.53;;
21034;SDS011;10676;50.848;3.272;2023-02-15T03:54:41;176.87;;;72.10;;
21034;SDS011;10676;50.848;3.272;2023-02-15T04:00:22;193.37;;;74.27;;
21034;SDS011;10676;50.848;3.272;2023-02-15T04:05:45;184.53;;;73.23;;
21034;SDS011;10676;50.848;3.272;2023-02-15T04:08:11;179.73;;;71.33;;
21034;SDS011;10676;50.848;3.272;2023-02-15T04:10:37;177.40;;;73.83;;
21034;SDS011;10676;50.848;3.272;2023-02-15T04:13:18;182.03;;;71.23;;
21034;SDS011;10676;50.848;3.272;2023-02-15T04:15:44;180.90;;;70.20;;
21034;SDS011;10676;50.848;3.272;2023-02-15T04:18:46;172.27;;;69.97;;
21034;SDS011;10676;50.848;3.272;2023-02-15T04:21:30;173.50;;;69.57;;
21034;SDS011;10676;50.848;3.272;2023-02-15T04:24:15;179.90;;;68.30;;
21034;SDS011;10676;50.848;3.272;2023-02-15T04:27:00;178.57;;;71.63;;
21034;SDS011;10676;50.848;3.272;2023-02-15T04:29:26;178.67;;;69.10;;
21034;SDS011;10676;50.848;3.272;2023-02-15T04:31:53;186.80;;;70.07;;
21034;SDS011;10676;50.848;3.272;2023-02-15T04:34:21;167.23;;;68.23;;
21034;SDS011;10676;50.848;3.272;2023-02-15T04:36:47;174.07;;;69.50;;
21034;SDS011;10676;50.848;3.272;2023-02-15T04:39:14;170.67;;;68.83;;
21034;SDS011;10676;50.848;3.272;2023-02-15T04:41:41;186.33;;;68.73;;
21034;SDS011;10676;50.848;3.272;2023-02-15T04:44:07;187.23;;;72.47;;
21034;SDS011;10676;50.848;3.272;2023-02-15T04:46:33;191.90;;;72.47;;
21034;SDS011;10676;50.848;3.272;2023-02-15T04:48:59;209.13;;;72.60;;
21034;SDS011;10676;50.848;3.272;2023-02-15T04:51:25;183.33;;;69.30;;
21034;SDS011;10676;50.848;3.272;2023-02-15T04:53:50;182.40;;;69.40;;
21034;SDS011;10676;50.848;3.272;2023-02-15T04:56:18;183.17;;;68.60;;
21034;SDS011;10676;50.848;3.272;2023-02-15T04:58:46;177.43;;;68.00;;
21034;SDS011;10676;50.848;3.272;2023-02-15T05:01:12;183.60;;;68.33;;
21034;SDS011;10676;50.848;3.272;2023-02-15T05:03:38;171.20;;;65.93;;
21034;SDS011;10676;50.848;3.272;2023-02-15T05:06:04;182.77;;;66.03;;
21034;SDS011;10676;50.848;3.272;2023-02-15T05:08:30;175.93;;;65.33;;
21034;SDS011;10676;50.848;3.272;2023-02-15T05:10:56;172.93;;;66.37;;
21034;SDS011;10676;50.848;3.272;2023-02-15T05:13:22;190.27;;;67.30;;
21034;SDS011;10676;50.848;3.272;2023-02-15T05:15:48;182.83;;;68.00;;
21034;SDS011;10676;50.848;3.272;2023-02-15T05:18:16;182.37;;;64.73;;
21034;SDS011;10676;50.848;3.272;2023-02-15T05:20:42;172.23;;;64.87;;
21034;SDS011;10676;50.848;3.272;2023-02-15T05:23:08;180.27;;;65.63;;
21034;SDS011;10676;50.848;3.272;2023-02-15T05:25:34;177.30;;;64.00;;
21034;SDS011;10676;50.848;3.272;2023-02-15T05:28:18;182.57;;;64.40;;
21034;SDS011;10676;50.848;3.272;2023-02-15T05:30:44;182.27;;;67.27;;
21034;SDS011;10676;50.848;3.272;2023-02-15T05:33:11;175.67;;;64.10;;
21034;SDS011;10676;50.848;3.272;2023-02-15T05:35:36;174.90;;;63.03;;
21034;SDS011;10676;50.848;3.272;2023-02-15T05:38:02;163.70;;;62.77;;
21034;SDS011;10676;50.848;3.272;2023-02-15T05:40:28;165.23;;;61.93;;
21034;SDS011;10676;50.848;3.272;2023-02-15T05:42:53;178.73;;;63.67;;
21034;SDS011;10676;50.848;3.272;2023-02-15T05:45:19;177.33;;;64.53;;
21034;SDS011;10676;50.848;3.272;2023-02-15T05:47:46;181.27;;;62.70;;
21034;SDS011;10676;50.848;3.272;2023-02-15T05:50:12;173.20;;;63.67;;
21034;SDS011;10676;50.848;3.272;2023-02-15T05:52:37;176.53;;;62.20;;
21034;SDS011;10676;50.848;3.272;2023-02-15T05:55:03;163.13;;;61.07;;
21034;SDS011;10676;50.848;3.272;2023-02-15T05:57:30;174.20;;;61.10;;
21034;SDS011;10676;50.848;3.272;2023-02-15T05:59:55;152.77;;;59.20;;
21034;SDS011;10676;50.848;3.272;2023-02-15T06:02:21;174.67;;;60.93;;
21034;SDS011;10676;50.848;3.272;2023-02-15T06:04:47;160.27;;;60.47;;
21034;SDS011;10676;50.848;3.272;2023-02-15T06:07:12;165.37;;;60.73;;
21034;SDS011;10676;50.848;3.272;2023-02-15T06:09:38;179.00;;;62.03;;
21034;SDS011;10676;50.848;3.272;2023-02-15T06:12:04;165.80;;;61.43;;
21034;SDS011;10676;50.848;3.272;2023-02-15T06:14:30;175.03;;;61.97;;
21034;SDS011;10676;50.848;3.272;2023-02-15T06:16:56;160.93;;;59.60;;
21034;SDS011;10676;50.848;3.272;2023-02-15T06:19:21;147.73;;;58.33;;
21034;SDS011;10676;50.848;3.272;2023-02-15T06:21:48;159.07;;;58.03;;
21034;SDS011;10676;50.848;3.272;2023-02-15T06:24:14;170.43;;;61.37;;
21034;SDS011;10676;50.848;3.272;2023-02-15T06:26:40;164.50;;;58.90;;
21034;SDS011;10676;50.848;3.272;2023-02-15T06:29:06;162.00;;;59.17;;
21034;SDS011;10676;50.848;3.272;2023-02-15T06:31:32;150.63;;;57.37;;
21034;SDS011;10676;50.848;3.272;2023-02-15T06:33:57;154.33;;;57.43;;
21034;SDS011;10676;50.848;3.272;2023-02-15T06:36:26;157.73;;;58.90;;
21034;SDS011;10676;50.848;3.272;2023-02-15T06:38:55;159.03;;;57.10;;
21034;SDS011;10676;50.848;3.272;2023-02-15T06:41:21;150.30;;;57.40;;
21034;SDS011;10676;50.848;3.272;2023-02-15T06:43:47;157.63;;;57.43;;
21034;SDS011;10676;50.848;3.272;2023-02-15T06:46:13;156.87;;;56.23;;
21034;SDS011;10676;50.848;3.272;2023-02-15T06:48:39;160.60;;;56.10;;
21034;SDS011;10676;50.848;3.272;2023-02-15T06:51:05;169.53;;;59.07;;
21034;SDS011;10676;50.848;3.272;2023-02-15T06:53:30;157.57;;;58.40;;
21034;SDS011;10676;50.848;3.272;2023-02-15T06:56:00;160.00;;;59.33;;
21034;SDS011;10676;50.848;3.272;2023-02-15T06:58:27;165.43;;;58.63;;
21034;SDS011;10676;50.848;3.272;2023-02-15T07:00:53;183.30;;;59.23;;
21034;SDS011;10676;50.848;3.272;2023-02-15T07:03:19;180.97;;;60.43;;
21034;SDS011;10676;50.848;3.272;2023-02-15T07:05:44;186.30;;;57.67;;
21034;SDS011;10676;50.848;3.272;2023-02-15T07:08:12;171.60;;;61.27;;
21034;SDS011;10676;50.848;3.272;2023-02-15T07:10:38;178.67;;;60.23;;
21034;SDS011;10676;50.848;3.272;2023-02-15T07:13:08;173.90;;;61.63;;
21034;SDS011;10676;50.848;3.272;2023-02-15T07:15:34;183.80;;;60.13;;
21034;SDS011;10676;50.848;3.272;2023-02-15T07:17:59;183.73;;;59.67;;
21034;SDS011;10676;50.848;3.272;2023-02-15T07:20:25;177.57;;;60.47;;
21034;SDS011;10676;50.848;3.272;2023-02-15T07:22:51;181.63;;;59.20;;
21034;SDS011;10676;50.848;3.272;2023-02-15T07:25:17;175.17;;;60.07;;
21034;SDS011;10676;50.848;3.272;2023-02-15T07:27:43;181.40;;;60.00;;
21034;SDS011;10676;50.848;3.272;2023-02-15T07:30:10;169.60;;;58.97;;
21034;SDS011;10676;50.848;3.272;2023-02-15T07:32:37;176.77;;;61.03;;
21034;SDS011;10676;50.848;3.272;2023-02-15T07:35:23;179.77;;;65.07;;
21034;SDS011;10676;50.848;3.272;2023-02-15T07:37:49;192.40;;;67.30;;
21034;SDS011;10676;50.848;3.272;2023-02-15T07:40:15;180.53;;;66.93;;
21034;SDS011;10676;50.848;3.272;2023-02-15T07:42:40;201.57;;;71.67;;
21034;SDS011;10676;50.848;3.272;2023-02-15T07:45:06;191.53;;;73.10;;
21034;SDS011;10676;50.848;3.272;2023-02-15T07:47:32;199.47;;;75.20;;
21034;SDS011;10676;50.848;3.272;2023-02-15T07:49:58;197.83;;;75.77;;
21034;SDS011;10676;50.848;3.272;2023-02-15T07:52:23;201.67;;;78.30;;
21034;SDS011;10676;50.848;3.272;2023-02-15T07:54:50;192.83;;;74.53;;
21034;SDS011;10676;50.848;3.272;2023-02-15T07:57:16;186.63;;;75.47;;
21034;SDS011;10676;50.848;3.272;2023-02-15T07:59:41;175.70;;;76.80;;
21034;SDS011;10676;50.848;3.272;2023-02-15T08:02:10;184.40;;;73.83;;
21034;SDS011;10676;50.848;3.272;2023-02-15T08:04:36;179.40;;;75.47;;
21034;SDS011;10676;50.848;3.272;2023-02-15T08:07:01;175.90;;;70.07;;
21034;SDS011;10676;50.848;3.272;2023-02-15T08:09:27;175.57;;;71.70;;
21034;SDS011;10676;50.848;3.272;2023-02-15T08:11:53;163.23;;;72.80;;
21034;SDS011;10676;50.848;3.272;2023-02-15T08:14:21;158.43;;;69.90;;
21034;SDS011;10676;50.848;3.272;2023-02-15T08:21:40;154.63;;;69.87;;
21034;SDS011;10676;50.848;3.272;2023-02-15T08:24:08;167.00;;;71.23;;
21034;SDS011;10676;50.848;3.272;2023-02-15T08:26:35;156.50;;;71.47;;
21034;SDS011;10676;50.848;3.272;2023-02-15T08:29:03;167.80;;;73.33;;
21034;SDS011;10676;50.848;3.272;2023-02-15T08:31:29;135.27;;;67.70;;
21034;SDS011;10676;50.848;3.272;2023-02-15T08:33:55;152.90;;;71.67;;
21034;SDS011;10676;50.848;3.272;2023-02-15T08:36:23;153.93;;;69.77;;
21034;SDS011;10676;50.848;3.272;2023-02-15T08:38:52;147.70;;;68.17;;
21034;SDS011;10676;50.848;3.272;2023-02-15T08:41:24;143.07;;;68.07;;
21034;SDS011;10676;50.848;3.272;2023-02-15T08:43:52;146.47;;;66.07;;
21034;SDS011;10676;50.848;3.272;2023-02-15T08:46:18;138.03;;;66.57;;
21034;SDS011;10676;50.848;3.272;2023-02-15T08:48:44;144.83;;;66.97;;
21034;SDS011;10676;50.848;3.272;2023-02-15T08:51:12;134.33;;;62.37;;
21034;SDS011;10676;50.848;3.272;2023-02-15T08:53:40;137.87;;;62.03;;
21034;SDS011;10676;50.848;3.272;2023-02-15T08:56:07;129.32;;;58.50;;
21034;SDS011;10676;50.848;3.272;2023-02-15T08:58:34;113.97;;;56.88;;
21034;SDS011;10676;50.848;3.272;2023-02-15T09:01:01;110.03;;;55.78;;
21034;SDS011;10676;50.848;3.272;2023-02-15T09:03:32;106.10;;;50.10;;
21034;SDS011;10676;50.848;3.272;2023-02-15T09:05:59;99.95;;;49.35;;
21034;SDS011;10676;50.848;3.272;2023-02-15T09:08:26;91.72;;;48.58;;
21034;SDS011;10676;50.848;3.272;2023-02-15T09:10:53;86.95;;;46.45;;
21034;SDS011;10676;50.848;3.272;2023-02-15T09:13:19;87.20;;;46.67;;
21034;SDS011;10676;50.848;3.272;2023-02-15T09:15:45;81.75;;;45.40;;
21034;SDS011;10676;50.848;3.272;2023-02-15T09:18:11;81.50;;;46.53;;
21034;SDS011;10676;50.848;3.272;2023-02-15T09:20:41;79.20;;;44.60;;
21034;SDS011;10676;50.848;3.272;2023-02-15T09:23:08;83.53;;;46.75;;
21034;SDS011;10676;50.848;3.272;2023-02-15T09:25:34;77.53;;;45.10;;
21034;SDS011;10676;50.848;3.272;2023-02-15T09:27:59;75.15;;;45.40;;
21034;SDS011;10676;50.848;3.272;2023-02-15T09:30:25;76.32;;;45.33;;
21034;SDS011;10676;50.848;3.272;2023-02-15T09:32:50;80.57;;;46.38;;
21034;SDS011;10676;50.848;3.272;2023-02-15T09:35:16;76.65;;;44.72;;
21034;SDS011;10676;50.848;3.272;2023-02-15T09:37:42;76.90;;;46.42;;
21034;SDS011;10676;50.848;3.272;2023-02-15T09:40:08;72.80;;;44.60;;
21034;SDS011;10676;50.848;3.272;2023-02-15T09:42:42;73.13;;;44.63;;
21034;SDS011;10676;50.848;3.272;2023-02-15T09:45:21;69.00;;;43.55;;
21034;SDS011;10676;50.848;3.272;2023-02-15T09:48:08;73.20;;;45.88;;
21034;SDS011;10676;50.848;3.272;2023-02-15T09:53:42;65.97;;;46.80;;
21034;SDS011;10676;50.848;3.272;2023-02-15T09:56:45;1999.90;;;999.90;;
21034;SDS011;10676;50.848;3.272;2023-02-15T10:13:22;1999.90;;;999.90;;
21034;SDS011;10676;50.848;3.272;2023-02-15T10:19:19;1999.90;;;999.90;;
21034;SDS011;10676;50.848;3.272;2023-02-15T10:21:58;1999.90;;;999.90;;
21034;SDS011;10676;50.848;3.272;2023-02-15T10:24:44;1999.90;;;999.90;;
21034;SDS011;10676;50.848;3.272;2023-02-15T10:27:21;1999.90;;;999.90;;
21034;SDS011;10676;50.848;3.272;2023-02-15T10:33:24;1999.90;;;999.90;;
21034;SDS011;10676;50.848;3.272;2023-02-15T10:35:42;1999.90;;;999.90;;
21034;SDS011;10676;50.848;3.272;2023-02-15T10:41:29;1999.90;;;999.90;;
21034;SDS011;10676;50.848;3.272;2023-02-15T10:44:17;1999.90;;;999.90;;
21034;SDS011;10676;50.848;3.272;2023-02-15T10:49:34;1999.90;;;999.90;;
21034;SDS011;10676;50.848;3.272;2023-02-15T10:52:33;1999.90;;;999.90;;
21034;SDS011;10676;50.848;3.272;2023-02-15T11:08:49;1999.90;;;999.90;;
21034;SDS011;10676;50.848;3.272;2023-02-15T11:11:39;1999.90;;;999.90;;
21034;SDS011;10676;50.848;3.272;2023-02-15T11:14:20;1999.90;;;999.90;;
21034;SDS011;10676;50.848;3.272;2023-02-15T11:17:02;1999.90;;;999.90;;
21034;SDS011;10676;50.848;3.272;2023-02-15T11:19:39;1999.90;;;999.90;;
21034;SDS011;10676;50.848;3.272;2023-02-15T11:22:17;1999.90;;;999.90;;
21034;SDS011;10676;50.848;3.272;2023-02-15T11:24:43;1999.90;;;999.90;;
21034;SDS011;10676;50.848;3.272;2023-02-15T11:27:30;1999.90;;;999.90;;
21034;SDS011;10676;50.848;3.272;2023-02-15T11:30:09;1999.90;;;999.90;;
21034;SDS011;10676;50.848;3.272;2023-02-15T11:32:43;1999.90;;;999.90;;
21034;SDS011;10676;50.848;3.272;2023-02-15T11:40:33;1999.90;;;999.90;;
21034;SDS011;10676;50.848;3.272;2023-02-15T11:43:07;1999.90;;;999.90;;
21034;SDS011;10676;50.848;3.272;2023-02-15T11:45:56;1999.90;;;999.90;;
21034;SDS011;10676;50.848;3.272;2023-02-15T11:48:22;1999.90;;;999.90;;
21034;SDS011;10676;50.848;3.272;2023-02-15T11:50:48;1999.90;;;999.90;;
21034;SDS011;10676;50.848;3.272;2023-02-15T11:53:20;1999.90;;;999.90;;
21034;SDS011;10676;50.848;3.272;2023-02-15T11:55:50;1999.90;;;999.90;;
21034;SDS011;10676;50.848;3.272;2023-02-15T12:03:51;1999.90;;;999.90;;
21034;SDS011;10676;50.848;3.272;2023-02-15T12:06:27;1999.90;;;999.90;;
21034;SDS011;10676;50.848;3.272;2023-02-15T12:11:35;1999.90;;;999.90;;
21034;SDS011;10676;50.848;3.272;2023-02-15T12:14:03;1999.90;;;999.90;;
21034;SDS011;10676;50.848;3.272;2023-02-15T12:16:45;1999.90;;;999.90;;
21034;SDS011;10676;50.848;3.272;2023-02-15T12:19:36;1999.90;;;999.90;;
21034;SDS011;10676;50.848;3.272;2023-02-15T12:22:03;1999.90;;;999.90;;
21034;SDS011;10676;50.848;3.272;2023-02-15T12:24:37;1999.90;;;999.90;;
21034;SDS011;10676;50.848;3.272;2023-02-15T12:32:46;1999.90;;;999.90;;
21034;SDS011;10676;50.848;3.272;2023-02-15T12:35:25;1999.90;;;999.90;;
21034;SDS011;10676;50.848;3.272;2023-02-15T12:38:00;1999.90;;;999.90;;
21034;SDS011;10676;50.848;3.272;2023-02-15T12:40:36;1999.90;;;999.90;;
21034;SDS011;10676;50.848;3.272;2023-02-15T12:43:03;1999.90;;;999.90;;
21034;SDS011;10676;50.848;3.272;2023-02-15T12:45:35;1999.90;;;999.90;;
21034;SDS011;10676;50.848;3.272;2023-02-15T12:50:37;1999.90;;;999.90;;
21034;SDS011;10676;50.848;3.272;2023-02-15T12:53:13;1999.90;;;999.90;;
21034;SDS011;10676;50.848;3.272;2023-02-15T12:55:57;1999.90;;;999.90;;
21034;SDS011;10676;50.848;3.272;2023-02-15T12:58:28;1999.90;;;999.90;;
21034;SDS011;10676;50.848;3.272;2023-02-15T13:03:55;1999.90;;;999.90;;
21034;SDS011;10676;50.848;3.272;2023-02-15T13:06:32;1999.90;;;999.90;;
21034;SDS011;10676;50.848;3.272;2023-02-15T13:09:12;1999.90;;;999.90;;
21034;SDS011;10676;50.848;3.272;2023-02-15T13:11:45;1999.90;;;999.90;;
21034;SDS011;10676;50.848;3.272;2023-02-15T13:16:58;1999.90;;;999.90;;
21034;SDS011;10676;50.848;3.272;2023-02-15T13:19:34;1999.90;;;999.90;;
21034;SDS011;10676;50.848;3.272;2023-02-15T13:22:13;1999.90;;;999.90;;
21034;SDS011;10676;50.848;3.272;2023-02-15T13:24:47;1999.90;;;999.90;;
21034;SDS011;10676;50.848;3.272;2023-02-15T13:27:18;1999.90;;;999.90;;
21034;SDS011;10676;50.848;3.272;2023-02-15T13:29:51;1999.90;;;999.90;;
21034;SDS011;10676;50.848;3.272;2023-02-15T13:34:55;1999.90;;;999.90;;
21034;SDS011;10676;50.848;3.272;2023-02-15T13:40:15;1999.90;;;999.90;;
21034;SDS011;10676;50.848;3.272;2023-02-15T13:42:54;1999.90;;;999.90;;
21034;SDS011;10676;50.848;3.272;2023-02-15T13:48:06;1999.90;;;999.90;;
21034;SDS011;10676;50.848;3.272;2023-02-15T13:50:38;1999.90;;;999.90;;
21034;SDS011;10676;50.848;3.272;2023-02-15T13:53:38;1999.90;;;999.90;;
21034;SDS011;10676;50.848;3.272;2023-02-15T14:01:38;1999.90;;;999.90;;
21034;SDS011;10676;50.848;3.272;2023-02-15T14:18:25;1999.90;;;999.90;;
21034;SDS011;10676;50.848;3.272;2023-02-15T14:21:27;1999.90;;;999.90;;
21034;SDS011;10676;50.848;3.272;2023-02-15T14:24:02;1999.90;;;999.90;;
21034;SDS011;10676;50.848;3.272;2023-02-15T14:26:45;1999.90;;;999.90;;
21034;SDS011;10676;50.848;3.272;2023-02-15T14:29:20;1999.90;;;999.90;;
21034;SDS011;10676;50.848;3.272;2023-02-15T14:32:14;1999.90;;;999.90;;
21034;SDS011;10676;50.848;3.272;2023-02-15T14:37:16;1999.90;;;999.90;;
21034;SDS011;10676;50.848;3.272;2023-02-15T14:39:50;1999.90;;;999.90;;
21034;SDS011;10676;50.848;3.272;2023-02-15T14:42:57;1999.90;;;999.90;;
21034;SDS011;10676;50.848;3.272;2023-02-15T14:45:28;1999.90;;;999.90;;
21034;SDS011;10676;50.848;3.272;2023-02-15T14:48:12;1999.90;;;999.90;;
21034;SDS011;10676;50.848;3.272;2023-02-15T14:50:46;1999.90;;;999.90;;
21034;SDS011;10676;50.848;3.272;2023-02-15T14:53:55;1999.90;;;999.90;;
21034;SDS011;10676;50.848;3.272;2023-02-15T14:59:28;1999.90;;;999.90;;
21034;SDS011;10676;50.848;3.272;2023-02-15T15:01:52;1999.90;;;999.90;;
21034;SDS011;10676;50.848;3.272;2023-02-15T15:04:29;1999.90;;;999.90;;
21034;SDS011;10676;50.848;3.272;2023-02-15T15:07:21;1999.90;;;999.90;;
21034;SDS011;10676;50.848;3.272;2023-02-15T15:09:59;1999.90;;;999.90;;
21034;SDS011;10676;50.848;3.272;2023-02-15T15:14:57;1999.90;;;999.90;;
21034;SDS011;10676;50.848;3.272;2023-02-15T15:20:14;1999.90;;;999.90;;
21034;SDS011;10676;50.848;3.272;2023-02-15T15:25:45;1999.90;;;999.90;;
21034;SDS011;10676;50.848;3.272;2023-02-15T15:31:07;1999.90;;;999.90;;
21034;SDS011;10676;50.848;3.272;2023-02-15T15:33:50;1999.90;;;999.90;;
21034;SDS011;10676;50.848;3.272;2023-02-15T15:39:19;1999.90;;;999.90;;
21034;SDS011;10676;50.848;3.272;2023-02-15T15:45:19;1999.90;;;999.90;;
21034;SDS011;10676;50.848;3.272;2023-02-15T15:50:52;1999.90;;;999.90;;
21034;SDS011;10676;50.848;3.272;2023-02-15T15:53:23;1999.90;;;999.90;;
21034;SDS011;10676;50.848;3.272;2023-02-15T15:55:52;1999.90;;;999.90;;
21034;SDS011;10676;50.848;3.272;2023-02-15T15:58:23;1999.90;;;999.90;;
21034;SDS011;10676;50.848;3.272;2023-02-15T16:01:01;1999.90;;;999.90;;
21034;SDS011;10676;50.848;3.272;2023-02-15T16:03:34;1999.90;;;999.90;;
21034;SDS011;10676;50.848;3.272;2023-02-15T16:06:01;1999.90;;;999.90;;
21034;SDS011;10676;50.848;3.272;2023-02-15T16:11:00;1999.90;;;999.90;;
21034;SDS011;10676;50.848;3.272;2023-02-15T16:13:40;1999.90;;;999.90;;
21034;SDS011;10676;50.848;3.272;2023-02-15T16:16:06;1999.90;;;999.90;;
21034;SDS011;10676;50.848;3.272;2023-02-15T16:18:32;1999.90;;;999.90;;
21034;SDS011;10676;50.848;3.272;2023-02-15T16:21:03;1999.90;;;999.90;;
21034;SDS011;10676;50.848;3.272;2023-02-15T16:23:43;1999.90;;;999.90;;
21034;SDS011;10676;50.848;3.272;2023-02-15T16:26:41;1999.90;;;999.90;;
21034;SDS011;10676;50.848;3.272;2023-02-15T16:29:29;1999.90;;;999.90;;
21034;SDS011;10676;50.848;3.272;2023-02-15T16:37:18;1999.90;;;999.90;;
21034;SDS011;10676;50.848;3.272;2023-02-15T16:39:48;1999.90;;;999.90;;
21034;SDS011;10676;50.848;3.272;2023-02-15T16:42:15;1999.90;;;999.90;;
21034;SDS011;10676;50.848;3.272;2023-02-15T16:44:42;1999.90;;;999.90;;
21034;SDS011;10676;50.848;3.272;2023-02-15T16:47:21;1999.90;;;999.90;;
21034;SDS011;10676;50.848;3.272;2023-02-15T16:49:57;1999.90;;;999.90;;
21034;SDS011;10676;50.848;3.272;2023-02-15T16:52:26;1999.90;;;999.90;;
21034;SDS011;10676;50.848;3.272;2023-02-15T16:54:55;1999.90;;;999.90;;
21034;SDS011;10676;50.848;3.272;2023-02-15T16:57:24;1999.90;;;999.90;;
21034;SDS011;10676;50.848;3.272;2023-02-15T16:59:54;1999.90;;;999.90;;
21034;SDS011;10676;50.848;3.272;2023-02-15T17:02:26;1999.90;;;999.90;;
21034;SDS011;10676;50.848;3.272;2023-02-15T17:07:38;1999.90;;;999.90;;
21034;SDS011;10676;50.848;3.272;2023-02-15T17:10:25;1999.90;;;999.90;;
21034;SDS011;10676;50.848;3.272;2023-02-15T17:12:54;1999.90;;;999.90;;
21034;SDS011;10676;50.848;3.272;2023-02-15T17:15:25;1999.90;;;999.90;;
21034;SDS011;10676;50.848;3.272;2023-02-15T17:18:05;1999.90;;;999.90;;
21034;SDS011;10676;50.848;3.272;2023-02-15T17:20:35;1999.90;;;999.90;;
21034;SDS011;10676;50.848;3.272;2023-02-15T17:23:06;1999.90;;;999.90;;
21034;SDS011;10676;50.848;3.272;2023-02-15T17:25:46;1999.90;;;999.90;;